Redfield, Arkansas
Current Conditions -  °F | °C
As of 7:53 AM on Thursday 29 Jan 2015 (Local Time) from KLIT Reporting Station
Broken Clouds Broken Clouds  
Wind Chill: 55°   Ceiling: 25000
Heat Index: 55°   Visibility: 10mi
Dew Point: 43°   Wind: 12mph
Humidity: 64%   Direction: 230°SW
Pressure: 30.08"   Gusts: NA
Location:  34.45°N, 92.18°W
Report Text: KLIT 291353Z 23010KT 10SM SCT120 BKN250 13/06 A3008 RMK AO2 SLP187 T01280061
Loading
Personal Weather Stations






























Interactive Weather Map New forecast layout! Learn more

10-Day Weather Forecast

Advertisements
Track Severe Weather on mobile